Nearby METAR Reports

 

KMTN - Baltimore/Martin, Maryland, USA
Distance from station: SSE 8mi, 13km
Updated: Sat, 05-Sep-2015 5:45am EDT
Mostly cloudy
Mostly cloudy
 Wind from NE
Wind: NE 3 mph , 6 km/h
Temperature: 73°F , 23°C
Dew Point: 70°F , 21°C
Humidity: 89%
Barometer: 30.22 inHg , 1023.4 hPa
Clouds: Mostly cloudy
Visibility: 10 miles , 16 km
Cloud details: Partly cloudy 1700 ft
Mostly cloudy 2700 ft
2015/09/05 09:45 KMTN 050945Z 04003KT 10SM SCT017 BKN027 23/21 A3022 RMK FIRST
KDMH - Baltimore/Dwntwn, Maryland, USA
Distance from station: SW 12mi, 19km
Updated: Sat, 05-Sep-2015 5:54am EDT

 
Temperature: 73°F , 23°C
Dew Point: 66°F , 19°C
Humidity: 78%
Barometer: 30.21 inHg , 1023 hPa
2015/09/05 09:54 KDMH 050954Z AUTO 23/19 A3021 RMK AO1 SLP229 T02330194
 
KBWI - Balto/Wash Intl, Maryland, USA
Distance from station: SSW 20mi, 33km
Updated: Sat, 05-Sep-2015 5:54am EDT
Overcast
Overcast
 Wind from ENE
Wind: ENE 12 mph , 19 km/h
Temperature: 73°F , 23°C
Dew Point: 66°F , 19°C
Humidity: 78%
Barometer: 30.19 inHg , 1022.4 hPa
Clouds: Overcast
Visibility: 10 miles , 16 km
Cloud details: Overcast 1800 ft
2015/09/05 09:54 KBWI 050954Z 07010KT 10SM OVC018 23/19 A3019 RMK AO2 SLP223 T02280194
KDMW - Carroll Cnty, Maryland, USA
Distance from station: WNW 30mi, 48km
Updated: Sat, 05-Sep-2015 5:50am EDT
Overcast
Overcast
 Wind from E
Wind: E 3 mph , 6 km/h
Temperature: 70°F , 21°C
Dew Point: 66°F , 19°C
Humidity: 88%
Barometer: 30.23 inHg , 1023.7 hPa
Clouds: Overcast
Visibility: 10 miles , 16 km
Cloud details: Partly cloudy 2200 ft
Overcast 9500 ft
2015/09/05 09:50 KDMW 050950Z AUTO 08003KT 10SM SCT022 OVC095 21/19 A3023 RMK AO2
 
KNAK - Annapolis/Naval, Maryland, USA
Distance from station: S 30mi, 48km
Updated: Sat, 05-Sep-2015 5:54am EDT
Overcast
Overcast
 Wind from NE
Wind: NE 9 mph , 15 km/h
Temperature: 73°F , 23°C
Dew Point: 70°F , 21°C
Humidity: 89%
Barometer: 30.18 inHg , 1022 hPa
Clouds: Overcast
Visibility: 9 miles , 14 km
Cloud details: Overcast 2000 ft
2015/09/05 09:54 KNAK 050954Z AUTO 05008KT 9SM OVC020 23/21 A3018 RMK AO2 SLP223 T02280206
KW29 - Stevensville, Maryland, USA
Distance from station: SSE 31mi, 50km
Updated: Sat, 05-Sep-2015 5:50am EDT

 Wind from ENE
Wind: ENE 6 mph , 9 km/h
Temperature: 72°F , 22°C
Dew Point: 68°F , 20°C
Humidity: 88%
Barometer: 30.19 inHg , 1022.4 hPa
Visibility: 10 miles , 16 km
2015/09/05 09:50 KW29 050950Z AUTO 06005KT 10SM 22/20 A3019 RMK AO1
 
KCGS - College Park, Maryland, USA
Distance from station: SW 38mi, 61km
Updated: Sat, 05-Sep-2015 5:50am EDT
Overcast
Overcast
 Wind from ENE
Wind: ENE 3 mph , 6 km/h
Temperature: 72°F , 22°C
Dew Point: 68°F , 20°C
Humidity: 88%
Barometer: 30.19 inHg , 1022.4 hPa
Clouds: Overcast
Visibility: 10 miles , 16 km
Cloud details: Overcast 2100 ft
2015/09/05 09:50 KCGS 050950Z AUTO 06003KT 10SM OVC021 22/20 A3019 RMK AO1
KGAI - Gaithersburg, Maryland, USA
Distance from station: WSW 40mi, 65km
Updated: Sat, 05-Sep-2015 5:55am EDT
Mostly cloudy
Mostly cloudy
 Wind from NE
Wind: NE 3 mph , 6 km/h
Temperature: 70°F , 21°C
Dew Point: 64°F , 18°C
Humidity: 83%
Barometer: 30.25 inHg , 1024.4 hPa
Clouds: Mostly cloudy
Visibility: 10 miles , 16 km
Cloud details: Few Clouds 1800 ft
Mostly cloudy 2700 ft
Mostly cloudy 9500 ft
2015/09/05 09:55 KGAI 050955Z AUTO 05003KT 10SM FEW018 BKN027 BKN095 21/18 A3025 RMK AO1
 
KTHV - York, Pennsylvania, USA
Distance from station: NNW 40mi, 65km
Updated: Sat, 05-Sep-2015 5:53am EDT
Overcast
Overcast
 Wind from E
Wind: E 8 mph , 13 km/h
Temperature: 72°F , 22°C
Dew Point: 64°F , 18°C
Humidity: 78%
Barometer: 30.23 inHg , 1023.7 hPa
Clouds: Overcast
Visibility: 10 miles , 16 km
Cloud details: Overcast 2100 ft
2015/09/05 09:53 KTHV 050953Z AUTO 09007KT 10SM OVC021 22/18 A3023 RMK AO2 SLP233 T02170183
KFDK - Frederick, Maryland, USA
Distance from station: W 47mi, 75km
Updated: Sat, 05-Sep-2015 5:45am EDT
Overcast
Overcast
 Wind from NE
Wind: NE 5 mph , 7 km/h
Temperature: 70°F , 21°C
Dew Point: 68°F , 20°C
Humidity: 94%
Barometer: 30.23 inHg , 1023.7 hPa
Clouds: Overcast
Visibility: 10 miles , 16 km
Cloud details: Overcast 2800 ft
2015/09/05 09:45 KFDK 050945Z AUTO 05004KT 10SM OVC028 21/20 A3023 RMK AO2 LTG DSNT E
 
KESN - Easton/Newnam, Maryland, USA
Distance from station: SSE 48mi, 78km
Updated: Sat, 05-Sep-2015 5:45am EDT
Overcast
Overcast
 Wind from NNE
Wind: NNE 6 mph , 9 km/h
Temperature: 72°F , 22°C
Dew Point: 72°F , 22°C
Humidity: 100%
Barometer: 30.21 inHg , 1023 hPa
Clouds: Overcast
Visibility: 7 miles , 11 km
Cloud details: Partly cloudy 2200 ft
Mostly cloudy 2900 ft
Overcast 3600 ft
2015/09/05 09:45 KESN 050945Z 03005KT 7SM SCT022 BKN029 OVC036 22/22 A3021
KDCA - Washington/Natl, Washington D.c., USA
Distance from station: SW 49mi, 79km
Updated: Sat, 05-Sep-2015 5:52am EDT
Overcast
Overcast
 Wind from NE
Wind: NE 9 mph , 15 km/h
Temperature: 73°F , 23°C
Dew Point: 70°F , 21°C
Humidity: 89%
Barometer: 30.19 inHg , 1022.4 hPa
Clouds: Overcast
Visibility: 10 miles , 16 km
Cloud details: Overcast 2900 ft
2015/09/05 09:52 KDCA 050952Z 05008KT 10SM OVC029 23/21 A3019 RMK AO2 SLP223 T02330206
 
KLNS - Lancaster, Pennsylvania, USA
Distance from station: N 49mi, 79km
Updated: Sat, 05-Sep-2015 5:53am EDT
Partly cloudy
Partly cloudy
 Wind from ENE
Wind: ENE 3 mph , 6 km/h
Temperature: 66°F , 19°C
Dew Point: 64°F , 18°C
Humidity: 94%
Barometer: 30.24 inHg , 1024 hPa
Clouds: Partly cloudy
Visibility: 8 miles , 13 km
Cloud details: Partly cloudy 2600 ft
2015/09/05 09:53 KLNS 050953Z 07003KT 8SM SCT026 19/18 A3024 RMK AO2 SLP235 T01890178
KILG - Wilmington, Delaware, USA
Distance from station: ENE 50mi, 81km
Updated: Sat, 05-Sep-2015 5:51am EDT
Overcast
Overcast
 Wind from ENE
Wind: ENE 8 mph , 13 km/h
Temperature: 72°F , 22°C
Dew Point: 64°F , 18°C
Humidity: 78%
Barometer: 30.23 inHg , 1023.7 hPa
Clouds: Overcast
Visibility: 10 miles , 16 km
Cloud details: Overcast 2400 ft
2015/09/05 09:51 KILG 050951Z 06007KT 10SM OVC024 22/18 A3023 RMK AO2 SLP235 T02220178 $